createdAt,value
2018-05-13T00:00:05.528Z,16.20
2018-05-13T00:01:05.306Z,16.20
2018-05-13T00:02:04.984Z,16.20
2018-05-13T00:03:04.828Z,16.20
2018-05-13T00:04:04.753Z,16.10
2018-05-13T00:05:05.711Z,16.10
2018-05-13T00:06:05.026Z,16.10
2018-05-13T00:07:04.825Z,16.10
2018-05-13T00:08:05.066Z,16.10
2018-05-13T00:09:05.034Z,16.00
2018-05-13T00:10:04.857Z,16.00
2018-05-13T00:11:05.187Z,16.00
2018-05-13T00:12:05.201Z,16.00
2018-05-13T00:13:04.987Z,16.00
2018-05-13T00:14:04.721Z,15.90
2018-05-13T00:15:04.855Z,15.90
2018-05-13T00:16:04.953Z,15.90
2018-05-13T00:17:05.049Z,15.90
2018-05-13T00:18:05.282Z,15.80
2018-05-13T00:19:05.160Z,15.80
2018-05-13T00:20:05.291Z,15.80
2018-05-13T00:21:05.612Z,15.70
2018-05-13T00:22:05.715Z,15.70
2018-05-13T00:23:05.377Z,15.70
2018-05-13T00:24:05.373Z,15.70
2018-05-13T00:25:05.569Z,15.60
2018-05-13T00:26:04.641Z,15.60
2018-05-13T00:27:05.422Z,15.60
2018-05-13T00:28:04.741Z,15.60
2018-05-13T00:29:05.162Z,15.50
2018-05-13T00:30:05.270Z,15.50
2018-05-13T00:31:04.810Z,15.50
2018-05-13T00:32:05.020Z,15.50
2018-05-13T00:33:05.596Z,15.40
2018-05-13T00:34:05.296Z,15.40
2018-05-13T00:35:05.067Z,15.40
2018-05-13T00:36:04.736Z,15.40
2018-05-13T00:37:05.624Z,15.40
2018-05-13T00:38:06.221Z,15.40
2018-05-13T00:39:05.220Z,15.40
2018-05-13T00:40:05.166Z,15.40
2018-05-13T00:41:04.932Z,15.40
2018-05-13T00:42:05.662Z,15.30
2018-05-13T00:43:04.687Z,15.30
2018-05-13T00:44:05.008Z,15.30
2018-05-13T00:45:08.122Z,15.30
2018-05-13T00:46:05.059Z,15.30
2018-05-13T00:47:05.220Z,15.30
2018-05-13T00:48:05.372Z,15.20
2018-05-13T00:49:05.290Z,15.20
2018-05-13T00:50:05.539Z,15.20
2018-05-13T00:51:05.235Z,15.20
2018-05-13T00:52:05.427Z,15.20
2018-05-13T00:53:05.038Z,15.20
2018-05-13T00:54:04.803Z,15.20
2018-05-13T00:55:05.236Z,15.20
2018-05-13T00:56:05.475Z,15.20
2018-05-13T00:57:05.666Z,15.20
2018-05-13T00:58:05.553Z,15.20
2018-05-13T00:59:05.411Z,15.20
2018-05-13T01:00:05.141Z,15.20
2018-05-13T01:01:05.028Z,15.20
2018-05-13T01:02:05.538Z,15.20
2018-05-13T01:03:05.588Z,15.20
2018-05-13T01:04:05.574Z,15.10
2018-05-13T01:05:05.118Z,15.10
2018-05-13T01:06:05.031Z,15.10
2018-05-13T01:07:04.965Z,15.10
2018-05-13T01:08:04.927Z,15.10
2018-05-13T01:09:10.327Z,15.10
2018-05-13T01:10:05.367Z,15.10
2018-05-13T01:11:05.495Z,15.10
2018-05-13T01:12:05.311Z,15.10
2018-05-13T01:13:05.077Z,15.10
2018-05-13T01:14:05.506Z,15.00
2018-05-13T01:15:04.852Z,15.00
2018-05-13T01:16:05.296Z,15.00
2018-05-13T01:17:05.406Z,15.00
2018-05-13T01:18:04.627Z,15.00
2018-05-13T01:19:05.393Z,15.00
2018-05-13T01:20:04.811Z,14.90
2018-05-13T01:21:05.313Z,14.90
2018-05-13T01:22:05.376Z,14.90
2018-05-13T01:23:05.179Z,14.80
2018-05-13T01:24:05.488Z,14.80
2018-05-13T01:25:05.063Z,14.80
2018-05-13T01:26:05.267Z,14.80
2018-05-13T01:27:05.284Z,14.80
2018-05-13T01:28:04.740Z,14.80
2018-05-13T01:29:05.483Z,14.80
2018-05-13T01:30:04.778Z,14.70
2018-05-13T01:31:05.575Z,14.70
2018-05-13T01:32:05.316Z,14.70
2018-05-13T01:33:04.928Z,14.70
2018-05-13T01:34:05.582Z,14.70
2018-05-13T01:35:04.981Z,14.70
2018-05-13T01:36:05.680Z,14.70
2018-05-13T01:37:05.551Z,14.70
2018-05-13T01:38:05.411Z,14.60
2018-05-13T01:39:05.514Z,14.60
2018-05-13T01:40:09.980Z,14.60
2018-05-13T01:41:04.893Z,14.60
2018-05-13T01:42:04.872Z,14.60
2018-05-13T01:43:05.547Z,14.60
2018-05-13T01:44:04.865Z,14.60
2018-05-13T01:45:05.460Z,14.70
2018-05-13T01:46:05.320Z,14.60
2018-05-13T01:47:05.219Z,14.60
2018-05-13T01:48:05.040Z,14.60
2018-05-13T01:49:05.507Z,14.60
2018-05-13T01:50:05.070Z,14.60
2018-05-13T01:51:04.941Z,14.60
2018-05-13T01:52:05.665Z,14.60
2018-05-13T01:53:05.249Z,14.60
2018-05-13T01:54:05.691Z,14.60
2018-05-13T01:55:05.287Z,14.60
2018-05-13T01:56:05.594Z,14.60
2018-05-13T01:57:05.444Z,14.60
2018-05-13T01:58:04.775Z,14.60
2018-05-13T01:59:05.578Z,14.60
2018-05-13T02:00:05.353Z,14.60
2018-05-13T02:01:04.779Z,14.50
2018-05-13T02:02:05.210Z,14.50
2018-05-13T02:03:05.319Z,14.50
2018-05-13T02:04:05.105Z,14.50
2018-05-13T02:05:04.971Z,14.50
2018-05-13T02:06:04.848Z,14.50
2018-05-13T02:07:06.525Z,14.50
2018-05-13T02:08:04.793Z,14.50
2018-05-13T02:09:05.056Z,14.50
2018-05-13T02:10:04.832Z,14.50
2018-05-13T02:11:04.651Z,14.50
2018-05-13T02:12:05.611Z,14.50
2018-05-13T02:13:04.979Z,14.40
2018-05-13T02:14:04.745Z,14.50
2018-05-13T02:15:05.161Z,14.40
2018-05-13T02:16:05.256Z,14.50
2018-05-13T02:17:05.373Z,14.50
2018-05-13T02:18:05.395Z,14.50
2018-05-13T02:19:05.234Z,14.50
2018-05-13T02:20:05.548Z,14.50
2018-05-13T02:21:04.712Z,14.40
2018-05-13T02:22:05.363Z,14.50
2018-05-13T02:23:04.678Z,14.50
2018-05-13T02:24:05.688Z,14.40
2018-05-13T02:25:04.657Z,14.40
2018-05-13T02:26:05.504Z,14.40
2018-05-13T02:27:04.931Z,14.40
2018-05-13T02:28:05.282Z,14.40
2018-05-13T02:29:05.605Z,14.40
2018-05-13T02:30:05.035Z,14.40
2018-05-13T02:31:04.968Z,14.40
2018-05-13T02:32:05.670Z,14.40
2018-05-13T02:33:04.834Z,14.40
2018-05-13T02:34:05.584Z,14.40
2018-05-13T02:35:04.829Z,14.40
2018-05-13T02:36:05.445Z,14.40
2018-05-13T02:37:05.109Z,14.40
2018-05-13T02:38:05.307Z,14.40
2018-05-13T02:39:04.845Z,14.40
2018-05-13T02:40:04.617Z,14.40
2018-05-13T02:41:04.658Z,14.40
2018-05-13T02:42:04.970Z,14.40
2018-05-13T02:43:04.708Z,14.40
2018-05-13T02:44:04.730Z,14.40
2018-05-13T02:45:05.378Z,14.40
2018-05-13T02:46:05.014Z,14.40
2018-05-13T02:47:05.574Z,14.40
2018-05-13T02:48:05.166Z,14.40
2018-05-13T02:49:05.415Z,14.40
2018-05-13T02:50:05.445Z,14.40
2018-05-13T02:51:05.661Z,14.40
2018-05-13T02:52:05.619Z,14.40
2018-05-13T02:53:05.514Z,14.40
2018-05-13T02:54:05.529Z,14.40
2018-05-13T02:55:05.492Z,14.40
2018-05-13T02:56:04.798Z,14.40
2018-05-13T02:57:04.942Z,14.40
2018-05-13T02:58:04.755Z,14.40
2018-05-13T02:59:05.579Z,14.40
2018-05-13T03:00:05.420Z,14.40
2018-05-13T03:01:05.644Z,14.30
2018-05-13T03:02:04.807Z,14.40
2018-05-13T03:03:05.803Z,14.40
2018-05-13T03:04:04.765Z,14.40
2018-05-13T03:05:05.723Z,14.40
2018-05-13T03:06:05.320Z,14.40
2018-05-13T03:07:05.235Z,14.40
2018-05-13T03:08:05.222Z,14.40
2018-05-13T03:09:04.966Z,14.40
2018-05-13T03:10:05.070Z,14.40
2018-05-13T03:11:05.044Z,14.40
2018-05-13T03:12:05.607Z,14.40
2018-05-13T03:13:04.912Z,14.40
2018-05-13T03:14:06.434Z,14.40
2018-05-13T03:15:04.734Z,14.40
2018-05-13T03:16:05.748Z,14.40
2018-05-13T03:17:04.774Z,14.40
2018-05-13T03:18:05.723Z,14.40
2018-05-13T03:19:05.555Z,14.40
2018-05-13T03:20:04.907Z,14.40
2018-05-13T03:21:04.926Z,14.40
2018-05-13T03:22:04.967Z,14.40
2018-05-13T03:23:05.296Z,14.40
2018-05-13T03:24:05.509Z,14.40
2018-05-13T03:25:05.148Z,14.40
2018-05-13T03:26:05.231Z,14.40
2018-05-13T03:27:05.215Z,14.40
2018-05-13T03:28:04.997Z,14.40
2018-05-13T03:29:05.025Z,14.40
2018-05-13T03:30:04.716Z,14.40
2018-05-13T03:31:05.386Z,14.40
2018-05-13T03:32:05.032Z,14.40
2018-05-13T03:33:05.539Z,14.40
2018-05-13T03:34:05.076Z,14.40
2018-05-13T03:35:09.709Z,14.40
2018-05-13T03:36:05.665Z,14.40
2018-05-13T03:37:05.748Z,14.40
2018-05-13T03:38:05.358Z,14.40
2018-05-13T03:39:06.360Z,14.40
2018-05-13T03:40:05.515Z,14.40
2018-05-13T03:41:05.854Z,14.40
2018-05-13T03:42:05.410Z,14.30
2018-05-13T03:43:05.052Z,14.30
2018-05-13T03:44:05.723Z,14.30
2018-05-13T03:45:04.910Z,14.30
2018-05-13T03:46:05.021Z,14.30
2018-05-13T03:47:05.274Z,14.30
2018-05-13T03:48:05.213Z,14.30
2018-05-13T03:49:04.708Z,14.20
2018-05-13T03:50:05.564Z,14.20
2018-05-13T03:51:05.569Z,14.20
2018-05-13T03:52:05.620Z,14.20
2018-05-13T03:53:05.539Z,14.20
2018-05-13T03:54:05.265Z,14.20
2018-05-13T03:55:05.154Z,14.20
2018-05-13T03:56:05.528Z,14.20
2018-05-13T03:57:10.560Z,14.20
2018-05-13T03:58:05.156Z,14.20
2018-05-13T03:59:05.424Z,14.20
2018-05-13T04:00:05.373Z,14.20
2018-05-13T04:01:05.531Z,14.20
2018-05-13T04:02:05.174Z,14.20
2018-05-13T04:03:04.836Z,14.20
2018-05-13T04:04:05.081Z,14.20
2018-05-13T04:05:10.432Z,14.20
2018-05-13T04:06:05.283Z,14.20
2018-05-13T04:07:04.967Z,14.20
2018-05-13T04:08:05.334Z,14.20
2018-05-13T04:09:05.553Z,14.20
2018-05-13T04:10:05.477Z,14.20
2018-05-13T04:11:05.562Z,14.30
2018-05-13T04:12:05.753Z,14.30
2018-05-13T04:13:10.297Z,14.30
2018-05-13T04:14:05.468Z,14.40
2018-05-13T04:15:05.248Z,14.40
2018-05-13T04:16:05.276Z,14.50
2018-05-13T04:17:05.379Z,14.60
2018-05-13T04:18:05.289Z,14.60
2018-05-13T04:19:05.588Z,14.70
2018-05-13T04:20:04.712Z,14.80
2018-05-13T04:21:05.605Z,14.90
2018-05-13T04:22:04.800Z,14.90
2018-05-13T04:23:04.954Z,15.00
2018-05-13T04:24:05.060Z,15.10
2018-05-13T04:25:05.524Z,15.20
2018-05-13T04:26:05.732Z,15.30
2018-05-13T04:27:05.579Z,15.40
2018-05-13T04:28:04.788Z,15.50
2018-05-13T04:29:05.552Z,15.60
2018-05-13T04:30:05.207Z,15.70
2018-05-13T04:31:04.886Z,15.80
2018-05-13T04:32:05.203Z,15.90
2018-05-13T04:33:04.851Z,16.00
2018-05-13T04:34:05.430Z,16.10
2018-05-13T04:35:05.007Z,16.20
2018-05-13T04:36:05.626Z,16.30
2018-05-13T04:37:04.727Z,16.40
2018-05-13T04:38:05.094Z,16.50
2018-05-13T04:39:04.937Z,16.60
2018-05-13T04:40:05.147Z,16.70
2018-05-13T04:41:05.201Z,16.80
2018-05-13T04:42:05.396Z,16.90
2018-05-13T04:43:05.493Z,17.00
2018-05-13T04:44:05.217Z,17.00
2018-05-13T04:45:05.260Z,17.10
2018-05-13T04:46:04.835Z,17.20
2018-05-13T04:47:05.021Z,17.30
2018-05-13T04:48:05.249Z,17.40
2018-05-13T04:49:05.376Z,17.50
2018-05-13T04:50:05.682Z,17.60
2018-05-13T04:51:05.670Z,17.70
2018-05-13T04:52:05.700Z,17.70
2018-05-13T04:53:05.113Z,17.80
2018-05-13T04:54:04.911Z,17.90
2018-05-13T04:55:04.844Z,18.00
2018-05-13T04:56:05.358Z,18.10
2018-05-13T04:57:05.024Z,18.20
2018-05-13T04:58:04.807Z,18.20
2018-05-13T04:59:04.883Z,18.30
2018-05-13T05:00:05.236Z,18.40
2018-05-13T05:01:05.410Z,18.50
2018-05-13T05:02:04.857Z,18.60
2018-05-13T05:03:10.491Z,18.70
2018-05-13T05:04:04.703Z,18.80
2018-05-13T05:05:05.003Z,18.90
2018-05-13T05:06:05.012Z,19.00
2018-05-13T05:07:05.391Z,19.00
2018-05-13T05:08:04.797Z,19.10
2018-05-13T05:09:05.149Z,19.20
2018-05-13T05:10:05.323Z,19.20
2018-05-13T05:11:05.011Z,19.30
2018-05-13T05:12:04.803Z,19.40
2018-05-13T05:13:04.809Z,19.50
2018-05-13T05:14:05.400Z,19.60
2018-05-13T05:15:05.168Z,19.70
2018-05-13T05:16:04.828Z,19.70
2018-05-13T05:17:05.553Z,19.80
2018-05-13T05:18:05.071Z,19.90
2018-05-13T05:19:05.044Z,20.00
2018-05-13T05:20:05.354Z,20.10
2018-05-13T05:21:05.569Z,20.20
2018-05-13T05:22:04.863Z,20.30
2018-05-13T05:23:05.285Z,20.30
2018-05-13T05:24:08.359Z,20.40
2018-05-13T05:25:05.195Z,20.50
2018-05-13T05:26:05.182Z,20.60
2018-05-13T05:27:05.271Z,20.70
2018-05-13T05:28:04.927Z,20.80
2018-05-13T05:29:04.684Z,20.80
2018-05-13T05:30:05.503Z,20.90
2018-05-13T05:31:05.120Z,21.00
2018-05-13T05:32:05.567Z,21.00
2018-05-13T05:33:05.224Z,21.10
2018-05-13T05:34:05.347Z,21.20
2018-05-13T05:35:05.208Z,21.30
2018-05-13T05:36:05.465Z,21.30
2018-05-13T05:37:05.418Z,21.40
2018-05-13T05:38:05.336Z,21.50
2018-05-13T05:39:04.873Z,21.50
2018-05-13T05:40:05.047Z,21.60
2018-05-13T05:41:05.129Z,21.70
2018-05-13T05:42:05.358Z,21.80
2018-05-13T05:43:05.124Z,21.80
2018-05-13T05:44:04.780Z,21.80
2018-05-13T05:45:05.600Z,21.80
2018-05-13T05:46:05.017Z,21.80
2018-05-13T05:47:04.838Z,21.80
2018-05-13T05:48:04.903Z,21.80
2018-05-13T05:49:04.750Z,21.80
2018-05-13T05:50:05.809Z,21.80
2018-05-13T05:51:04.768Z,21.80
2018-05-13T05:52:05.203Z,21.80
2018-05-13T05:53:05.223Z,21.80
2018-05-13T05:54:05.315Z,21.80
2018-05-13T05:55:05.027Z,21.80
2018-05-13T05:56:05.332Z,21.80
2018-05-13T05:57:05.402Z,21.70
2018-05-13T05:58:05.138Z,21.70
2018-05-13T05:59:04.696Z,21.60
2018-05-13T06:00:09.733Z,21.60
2018-05-13T06:01:05.212Z,21.50
2018-05-13T06:02:05.259Z,21.50
2018-05-13T06:03:05.050Z,21.50
2018-05-13T06:04:05.734Z,21.50
2018-05-13T06:05:05.379Z,21.40
2018-05-13T06:06:05.592Z,21.40
2018-05-13T06:07:06.463Z,21.40
2018-05-13T06:08:06.311Z,21.50
2018-05-13T06:09:06.517Z,21.50
2018-05-13T06:10:05.030Z,21.50
2018-05-13T06:11:04.773Z,21.50
2018-05-13T06:12:05.443Z,21.50
2018-05-13T06:13:05.525Z,21.50
2018-05-13T06:14:04.983Z,21.60
2018-05-13T06:15:04.738Z,21.60
2018-05-13T06:16:05.526Z,21.70
2018-05-13T06:17:05.481Z,21.80
2018-05-13T06:18:04.994Z,21.90
2018-05-13T06:19:05.006Z,21.90
2018-05-13T06:20:04.772Z,22.00
2018-05-13T06:21:05.587Z,22.10
2018-05-13T06:22:05.426Z,22.20
2018-05-13T06:23:04.921Z,22.30
2018-05-13T06:24:05.405Z,22.30
2018-05-13T06:25:05.363Z,22.40
2018-05-13T06:26:05.263Z,22.50
2018-05-13T06:27:05.040Z,22.60
2018-05-13T06:28:04.995Z,22.70
2018-05-13T06:29:04.912Z,22.70
2018-05-13T06:30:05.405Z,22.80
2018-05-13T06:31:05.788Z,22.90
2018-05-13T06:32:05.590Z,22.90
2018-05-13T06:33:05.592Z,23.00
2018-05-13T06:34:05.416Z,23.10
2018-05-13T06:35:05.533Z,23.10
2018-05-13T06:36:05.479Z,23.20
2018-05-13T06:37:05.082Z,23.30
2018-05-13T06:38:05.392Z,23.40
2018-05-13T06:39:05.136Z,23.40
2018-05-13T06:40:04.755Z,23.50
2018-05-13T06:41:04.982Z,23.60
2018-05-13T06:42:05.419Z,23.60
2018-05-13T06:43:04.859Z,23.70
2018-05-13T06:44:05.647Z,23.70
2018-05-13T06:45:05.148Z,23.80
2018-05-13T06:46:05.632Z,23.80
2018-05-13T06:47:04.797Z,23.80
2018-05-13T06:48:04.936Z,23.90
2018-05-13T06:49:05.432Z,23.90
2018-05-13T06:50:05.092Z,24.00
2018-05-13T06:51:05.932Z,24.10
2018-05-13T06:52:05.556Z,24.10
2018-05-13T06:53:05.529Z,24.20
2018-05-13T06:54:05.019Z,24.20
2018-05-13T06:55:05.028Z,24.30
2018-05-13T06:56:04.809Z,24.30
2018-05-13T06:57:04.712Z,24.40
2018-05-13T06:58:05.631Z,24.40
2018-05-13T06:59:05.434Z,24.40
2018-05-13T07:00:05.089Z,24.50
2018-05-13T07:01:05.085Z,24.50
2018-05-13T07:02:05.024Z,24.50
2018-05-13T07:03:05.126Z,24.50
2018-05-13T07:04:05.288Z,24.50
2018-05-13T07:05:04.636Z,24.50
2018-05-13T07:06:04.905Z,24.50
2018-05-13T07:07:05.298Z,24.50
2018-05-13T07:08:05.274Z,24.60
2018-05-13T07:09:05.550Z,24.50
2018-05-13T07:10:05.302Z,24.60
2018-05-13T07:11:06.465Z,24.60
2018-05-13T07:12:05.015Z,24.60
2018-05-13T07:13:05.120Z,24.60
2018-05-13T07:14:05.081Z,24.60
2018-05-13T07:15:04.871Z,24.70
2018-05-13T07:16:04.921Z,24.70
2018-05-13T07:17:05.598Z,24.70
2018-05-13T07:18:04.745Z,24.70
2018-05-13T07:19:04.967Z,24.80
2018-05-13T07:20:05.279Z,24.80
2018-05-13T07:21:05.471Z,24.80
2018-05-13T07:22:05.482Z,24.80
2018-05-13T07:23:05.359Z,24.80
2018-05-13T07:24:04.996Z,24.90
2018-05-13T07:25:05.415Z,24.90
2018-05-13T07:26:05.701Z,24.90
2018-05-13T07:27:04.819Z,24.90
2018-05-13T07:28:04.699Z,25.00
2018-05-13T07:29:05.665Z,25.00
2018-05-13T07:30:05.813Z,25.00
2018-05-13T07:31:05.309Z,25.00
2018-05-13T07:32:05.340Z,25.00
2018-05-13T07:33:05.022Z,25.00
2018-05-13T07:34:05.579Z,25.10
2018-05-13T07:35:05.468Z,25.10
2018-05-13T07:36:05.904Z,25.10
2018-05-13T07:37:05.072Z,25.10
2018-05-13T07:38:04.928Z,25.10
2018-05-13T07:39:05.638Z,25.10
2018-05-13T07:40:16.829Z,25.20
2018-05-13T07:41:04.691Z,25.20
2018-05-13T07:42:04.704Z,25.20
2018-05-13T07:43:04.862Z,25.30
2018-05-13T07:44:04.992Z,25.30
2018-05-13T07:45:04.865Z,25.30
2018-05-13T07:46:05.149Z,25.30
2018-05-13T07:47:05.632Z,25.30
2018-05-13T07:48:05.183Z,25.30
2018-05-13T07:49:04.680Z,25.30
2018-05-13T07:50:06.452Z,25.30
2018-05-13T07:51:05.605Z,25.30
2018-05-13T07:52:05.000Z,25.30
2018-05-13T07:53:04.965Z,25.40
2018-05-13T07:54:04.783Z,25.40
2018-05-13T07:55:05.269Z,25.40
2018-05-13T07:56:05.617Z,25.50
2018-05-13T07:57:04.802Z,25.50
2018-05-13T07:58:04.843Z,25.50
2018-05-13T07:59:04.845Z,25.50
2018-05-13T08:00:05.109Z,25.50
2018-05-13T08:01:04.906Z,25.50
2018-05-13T08:02:05.395Z,25.50
2018-05-13T08:03:05.538Z,25.50
2018-05-13T08:04:05.194Z,25.50
2018-05-13T08:05:05.473Z,25.50
2018-05-13T08:06:10.380Z,25.50
2018-05-13T08:07:05.521Z,25.50
2018-05-13T08:08:05.000Z,25.50
2018-05-13T08:09:05.118Z,25.50
2018-05-13T08:10:04.931Z,25.60
2018-05-13T08:11:05.118Z,25.60
2018-05-13T08:12:05.069Z,25.70
2018-05-13T08:13:05.229Z,25.70
2018-05-13T08:14:05.136Z,25.80
2018-05-13T08:15:06.088Z,25.80
2018-05-13T08:16:04.791Z,25.80
2018-05-13T08:17:05.429Z,25.80
2018-05-13T08:18:04.793Z,25.80
2018-05-13T08:19:05.604Z,25.80
2018-05-13T08:20:04.736Z,25.90
2018-05-13T08:21:05.055Z,25.90
2018-05-13T08:22:05.435Z,26.00
2018-05-13T08:23:05.459Z,26.00
2018-05-13T08:24:05.216Z,26.10
2018-05-13T08:25:05.446Z,26.10
2018-05-13T08:26:05.381Z,26.20
2018-05-13T08:27:05.489Z,26.20
2018-05-13T08:28:04.814Z,26.30
2018-05-13T08:29:06.710Z,26.30
2018-05-13T08:30:05.302Z,26.30
2018-05-13T08:31:05.529Z,26.30
2018-05-13T08:32:12.658Z,26.30
2018-05-13T08:33:05.580Z,26.30
2018-05-13T08:34:05.395Z,26.40
2018-05-13T08:35:05.127Z,26.40
2018-05-13T08:36:04.750Z,26.40
2018-05-13T08:37:05.448Z,26.40
2018-05-13T08:38:05.283Z,26.40
2018-05-13T08:39:05.153Z,26.30
2018-05-13T08:40:05.407Z,26.30
2018-05-13T08:41:05.855Z,26.30
2018-05-13T08:42:05.091Z,26.30
2018-05-13T08:43:05.041Z,26.30
2018-05-13T08:44:05.399Z,26.20
2018-05-13T08:45:05.593Z,26.20
2018-05-13T08:46:05.142Z,26.20
2018-05-13T08:47:05.134Z,26.10
2018-05-13T08:48:05.170Z,26.10
2018-05-13T08:49:05.679Z,26.00
2018-05-13T08:50:04.771Z,26.00
2018-05-13T08:51:05.477Z,26.00
2018-05-13T08:52:05.302Z,26.00
2018-05-13T08:53:05.698Z,25.90
2018-05-13T08:54:05.816Z,25.90
2018-05-13T08:55:04.967Z,25.90
2018-05-13T08:56:04.834Z,25.90
2018-05-13T08:57:05.438Z,25.90
2018-05-13T08:58:05.441Z,25.90
2018-05-13T08:59:05.261Z,25.80
2018-05-13T09:00:05.209Z,25.80
2018-05-13T09:01:04.823Z,25.80
2018-05-13T09:02:05.677Z,25.80
2018-05-13T09:03:05.706Z,25.80
2018-05-13T09:04:05.039Z,25.70
2018-05-13T09:05:05.269Z,25.70
2018-05-13T09:06:05.125Z,25.70
2018-05-13T09:07:05.978Z,25.70
2018-05-13T09:08:05.384Z,25.70
2018-05-13T09:09:05.073Z,25.70
2018-05-13T09:10:04.823Z,25.70
2018-05-13T09:11:05.074Z,25.70
2018-05-13T09:12:05.233Z,25.70
2018-05-13T09:13:06.219Z,25.70
2018-05-13T09:14:05.412Z,25.70
2018-05-13T09:15:05.505Z,25.70
2018-05-13T09:16:05.335Z,25.60
2018-05-13T09:17:05.707Z,25.60
2018-05-13T09:18:04.755Z,25.60
2018-05-13T09:19:05.379Z,25.50
2018-05-13T09:20:04.969Z,25.50
2018-05-13T09:21:04.909Z,25.40
2018-05-13T09:22:05.165Z,25.40
2018-05-13T09:23:05.125Z,25.30
2018-05-13T09:24:05.413Z,25.30
2018-05-13T09:25:05.162Z,25.20
2018-05-13T09:26:05.285Z,25.10
2018-05-13T09:27:05.153Z,25.10
2018-05-13T09:28:04.907Z,25.10
2018-05-13T09:29:05.096Z,25.10
2018-05-13T09:30:05.561Z,25.00
2018-05-13T09:31:05.410Z,25.00
2018-05-13T09:32:04.832Z,25.00
2018-05-13T09:33:04.725Z,25.00
2018-05-13T09:34:05.612Z,25.00
2018-05-13T09:35:05.202Z,25.00
2018-05-13T09:36:05.448Z,25.00
2018-05-13T09:37:05.363Z,25.10
2018-05-13T09:38:05.396Z,25.10
2018-05-13T09:39:05.757Z,25.10
2018-05-13T09:40:05.325Z,25.10
2018-05-13T09:41:05.190Z,25.10
2018-05-13T09:42:04.826Z,25.10
2018-05-13T09:43:05.808Z,25.20
2018-05-13T09:44:05.432Z,25.20
2018-05-13T09:45:05.724Z,25.30
2018-05-13T09:46:05.274Z,25.30
2018-05-13T09:47:05.541Z,25.40
2018-05-13T09:48:04.797Z,25.40
2018-05-13T09:49:04.861Z,25.50
2018-05-13T09:50:05.700Z,25.50
2018-05-13T09:51:05.214Z,25.50
2018-05-13T09:52:04.833Z,25.60
2018-05-13T09:53:05.518Z,25.60
2018-05-13T09:54:04.782Z,25.60
2018-05-13T09:55:04.718Z,25.70
2018-05-13T09:56:05.473Z,25.70
2018-05-13T09:57:04.756Z,25.60
2018-05-13T09:58:05.181Z,25.60
2018-05-13T09:59:04.994Z,25.60
2018-05-13T10:00:05.271Z,25.60
2018-05-13T10:01:05.171Z,25.50
2018-05-13T10:02:04.993Z,25.40
2018-05-13T10:03:04.918Z,25.40
2018-05-13T10:04:04.957Z,25.30
2018-05-13T10:05:05.205Z,25.30
2018-05-13T10:06:05.328Z,25.30
2018-05-13T10:07:05.101Z,25.30
2018-05-13T10:08:05.150Z,25.40
2018-05-13T10:09:05.801Z,25.40
2018-05-13T10:10:05.199Z,25.40
2018-05-13T10:11:05.476Z,25.40
2018-05-13T10:12:04.818Z,25.40
2018-05-13T10:13:05.344Z,25.50
2018-05-13T10:14:05.695Z,25.50
2018-05-13T10:15:05.460Z,25.60
2018-05-13T10:16:04.804Z,25.60
2018-05-13T10:17:04.999Z,25.60
2018-05-13T10:18:05.692Z,25.60
2018-05-13T10:19:05.024Z,25.60
2018-05-13T10:20:05.503Z,25.70
2018-05-13T10:21:05.347Z,25.70
2018-05-13T10:22:05.662Z,25.70
2018-05-13T10:23:04.663Z,25.60
2018-05-13T10:24:04.845Z,25.60
2018-05-13T10:25:05.063Z,25.60
2018-05-13T10:26:05.145Z,25.60
2018-05-13T10:27:05.414Z,25.50
2018-05-13T10:28:05.459Z,25.60
2018-05-13T10:29:05.500Z,25.60
2018-05-13T10:30:05.423Z,25.70
2018-05-13T10:31:05.628Z,25.70
2018-05-13T10:32:09.732Z,25.80
2018-05-13T10:33:04.756Z,25.80
2018-05-13T10:34:05.146Z,25.90
2018-05-13T10:35:05.687Z,25.90
2018-05-13T10:36:04.816Z,26.00
2018-05-13T10:37:05.599Z,26.00
2018-05-13T10:38:05.368Z,26.00
2018-05-13T10:39:05.776Z,25.90
2018-05-13T10:40:05.120Z,25.90
2018-05-13T10:41:05.331Z,25.90
2018-05-13T10:42:04.970Z,25.80
2018-05-13T10:43:05.555Z,25.80
2018-05-13T10:44:05.288Z,25.70
2018-05-13T10:45:05.029Z,25.70
2018-05-13T10:46:05.113Z,25.60
2018-05-13T10:47:04.929Z,25.60
2018-05-13T10:48:05.128Z,25.60
2018-05-13T10:49:05.153Z,25.60
2018-05-13T10:50:05.208Z,25.50
2018-05-13T10:51:04.977Z,25.50
2018-05-13T10:52:05.101Z,25.50
2018-05-13T10:53:05.092Z,25.50
2018-05-13T10:54:04.940Z,25.50
2018-05-13T10:55:05.042Z,25.50
2018-05-13T10:56:05.417Z,25.50
2018-05-13T10:57:05.639Z,25.50
2018-05-13T10:58:04.879Z,25.40
2018-05-13T10:59:05.103Z,25.40
2018-05-13T11:00:05.599Z,25.40
2018-05-13T11:01:05.279Z,25.40
2018-05-13T11:02:05.434Z,25.50
2018-05-13T11:03:05.636Z,25.50
2018-05-13T11:04:05.533Z,25.60
2018-05-13T11:05:05.006Z,25.60
2018-05-13T11:06:05.370Z,25.70
2018-05-13T11:07:05.319Z,25.70
2018-05-13T11:08:05.565Z,25.80
2018-05-13T11:09:04.761Z,25.80
2018-05-13T11:10:04.928Z,25.80
2018-05-13T11:11:05.598Z,25.80
2018-05-13T11:12:05.698Z,25.80
2018-05-13T11:13:05.111Z,25.80
2018-05-13T11:14:05.088Z,25.90
2018-05-13T11:15:05.242Z,25.90
2018-05-13T11:16:05.473Z,25.90
2018-05-13T11:17:05.410Z,25.90
2018-05-13T11:18:05.401Z,25.90
2018-05-13T11:19:05.236Z,25.90
2018-05-13T11:20:04.988Z,25.90
2018-05-13T11:21:05.125Z,25.90
2018-05-13T11:22:04.892Z,25.80
2018-05-13T11:23:05.554Z,25.80
2018-05-13T11:24:05.430Z,25.80
2018-05-13T11:25:05.505Z,25.70
2018-05-13T11:26:05.088Z,25.70
2018-05-13T11:27:04.873Z,25.70
2018-05-13T11:28:04.781Z,25.60
2018-05-13T11:29:05.634Z,25.60
2018-05-13T11:30:05.481Z,25.60
2018-05-13T11:31:05.105Z,25.60
2018-05-13T11:32:04.996Z,25.70
2018-05-13T11:33:05.380Z,25.70
2018-05-13T11:34:05.264Z,25.80
2018-05-13T11:35:05.293Z,25.80
2018-05-13T11:36:04.659Z,25.90
2018-05-13T11:37:05.570Z,26.00
2018-05-13T11:38:04.724Z,26.10
2018-05-13T11:39:05.557Z,26.10
2018-05-13T11:40:05.618Z,26.20
2018-05-13T11:41:05.566Z,26.20
2018-05-13T11:42:04.837Z,26.20
2018-05-13T11:43:05.136Z,26.30
2018-05-13T11:44:05.112Z,26.30
2018-05-13T11:45:05.472Z,26.40
2018-05-13T11:46:05.395Z,26.40
2018-05-13T11:47:06.168Z,26.40
2018-05-13T11:48:05.210Z,26.40
2018-05-13T11:49:05.226Z,26.40
2018-05-13T11:50:05.058Z,26.50
2018-05-13T11:51:05.588Z,26.50
2018-05-13T11:52:05.463Z,26.50
2018-05-13T11:53:05.633Z,26.50
2018-05-13T11:54:05.062Z,26.50
2018-05-13T11:55:05.112Z,26.50
2018-05-13T11:56:05.603Z,26.50
2018-05-13T11:57:05.464Z,26.50
2018-05-13T11:58:05.648Z,26.50
2018-05-13T11:59:05.525Z,26.40
2018-05-13T12:00:05.341Z,26.50
2018-05-13T12:01:05.361Z,26.50
2018-05-13T12:02:04.869Z,26.50
2018-05-13T12:03:05.074Z,26.50
2018-05-13T12:04:05.355Z,26.50
2018-05-13T12:05:05.249Z,26.50
2018-05-13T12:06:10.435Z,26.50
2018-05-13T12:07:05.073Z,26.60
2018-05-13T12:08:04.756Z,26.60
2018-05-13T12:09:05.223Z,26.60
2018-05-13T12:10:05.193Z,26.60
2018-05-13T12:11:05.379Z,26.60
2018-05-13T12:12:05.581Z,26.60
2018-05-13T12:13:05.555Z,26.70
2018-05-13T12:14:04.862Z,26.70
2018-05-13T12:15:09.960Z,26.70
2018-05-13T12:16:05.373Z,26.70
2018-05-13T12:17:04.996Z,26.70
2018-05-13T12:18:05.728Z,26.70
2018-05-13T12:19:05.420Z,26.70
2018-05-13T12:20:05.488Z,26.70
2018-05-13T12:21:05.959Z,26.70
2018-05-13T12:22:04.808Z,26.70
2018-05-13T12:23:04.802Z,26.70
2018-05-13T12:24:04.858Z,26.70
2018-05-13T12:25:05.438Z,26.70
2018-05-13T12:26:05.381Z,26.70
2018-05-13T12:27:05.315Z,26.70
2018-05-13T12:28:05.153Z,26.70
2018-05-13T12:29:05.430Z,26.70
2018-05-13T12:30:05.076Z,26.70
2018-05-13T12:31:05.156Z,26.70
2018-05-13T12:32:04.795Z,26.70
2018-05-13T12:33:05.481Z,26.70
2018-05-13T12:34:05.428Z,26.70
2018-05-13T12:35:04.676Z,26.70
2018-05-13T12:36:04.748Z,26.70
2018-05-13T12:37:05.615Z,26.70
2018-05-13T12:38:05.450Z,26.70
2018-05-13T12:39:04.726Z,26.70
2018-05-13T12:40:05.342Z,26.70
2018-05-13T12:41:05.098Z,26.70
2018-05-13T12:42:05.574Z,26.70
2018-05-13T12:43:04.693Z,26.70
2018-05-13T12:44:05.929Z,26.70
2018-05-13T12:45:04.864Z,26.70
2018-05-13T12:46:05.278Z,26.70
2018-05-13T12:47:05.306Z,26.70
2018-05-13T12:48:05.369Z,26.70
2018-05-13T12:49:05.494Z,26.70
2018-05-13T12:50:05.574Z,26.70
2018-05-13T12:51:05.075Z,26.70
2018-05-13T12:52:04.806Z,26.70